Estación de Río Bueno
Ultimos registro cada 15 minutos 57
| N° | Estación | Fecha / Hora | Temperatura | Humedad | Lluvia | Velocidad | Dirección | Radiación | Presion |
| 57 | Río Bueno | 07-05-2026 14:00 | 11,2 | 66,7 | 0 | 0,7 | 305 | 231,9 | 1023,3 |
| 56 | Río Bueno | 07-05-2026 13:45 | 10,8 | 70 | 0 | 0,7 | 300 | 253,1 | 1023,4 |
| 55 | Río Bueno | 07-05-2026 13:30 | 10,8 | 68,1 | 0 | 1 | 299 | 224,4 | 1023,8 |
| 54 | Río Bueno | 07-05-2026 13:15 | 11,7 | 64,4 | 0 | 0,7 | 264 | 198,1 | 1023,6 |
| 53 | Río Bueno | 07-05-2026 13:00 | 11,8 | 66,5 | 0 | 0,7 | 265 | 278,1 | 1023,6 |
| 52 | Río Bueno | 07-05-2026 12:45 | 11,7 | 65,3 | 0 | 0,7 | 292 | 309,4 | 1023,7 |
| 51 | Río Bueno | 07-05-2026 12:30 | 11,5 | 63,5 | 0 | 0,7 | 289 | 245,6 | 1023,7 |
| 50 | Río Bueno | 07-05-2026 12:15 | 11,7 | 64,7 | 0 | 1 | 293 | 351,9 | 1023,8 |
| 49 | Río Bueno | 07-05-2026 12:00 | 12,2 | 63,6 | 0 | 0,7 | 272 | 339,4 | 1023,9 |
| 48 | Río Bueno | 07-05-2026 11:45 | 11,5 | 64,6 | 0 | 1 | 284 | 343,1 | 1024,1 |
| 47 | Río Bueno | 07-05-2026 11:30 | 11,9 | 66 | 0 | 1 | 295 | 346,9 | 1024 |
| 46 | Río Bueno | 07-05-2026 11:15 | 11 | 72,2 | 0 | 1 | 270 | 290,6 | 1024 |
| 45 | Río Bueno | 07-05-2026 11:00 | 10,9 | 70,6 | 0 | 0,7 | 285 | 275,6 | 1024,1 |
| 44 | Río Bueno | 07-05-2026 10:45 | 11,2 | 72 | 0 | 0,7 | 285 | 281,9 | 1024,1 |
| 43 | Río Bueno | 07-05-2026 10:30 | 10 | 74,4 | 0 | 0,3 | 277 | 208,1 | 1023,9 |
| 42 | Río Bueno | 07-05-2026 10:15 | 11,3 | 73,6 | 0 | 0,7 | 292 | 248,1 | 1024,1 |
| 41 | Río Bueno | 07-05-2026 10:00 | 11 | 75,3 | 0 | 0,7 | 309 | 350,6 | 1024,1 |
| 40 | Río Bueno | 07-05-2026 09:45 | 9,9 | 79,8 | 0 | 0,3 | 298 | 270,6 | 1024,2 |
| 39 | Río Bueno | 07-05-2026 09:30 | 7,1 | 90,3 | 0 | 0,3 | 274 | 86,9 | 1024,3 |
| 38 | Río Bueno | 07-05-2026 09:15 | 5,9 | 94,6 | 0 | 0 | 270 | 159,4 | 1024 |
| 37 | Río Bueno | 07-05-2026 09:00 | 5,5 | 94,5 | 0 | 0 | 270 | 49,4 | 1024 |
| 36 | Río Bueno | 07-05-2026 08:45 | 5,2 | 94,9 | 0 | 0 | 270 | 66,9 | 1024 |
| 35 | Río Bueno | 07-05-2026 08:30 | 3,6 | 95,3 | 0 | 0 | 270 | 74,4 | 1023,6 |
| 34 | Río Bueno | 07-05-2026 08:15 | 2,4 | 95,3 | 0 | 0 | 270 | 29,4 | 1023,8 |
| 33 | Río Bueno | 07-05-2026 08:00 | 2 | 94,1 | 0 | 0 | 270 | 8,1 | 1023,6 |
| 32 | Río Bueno | 07-05-2026 07:45 | 2,6 | 94,3 | 0 | 0 | 270 | 3,1 | 1023,5 |
| 31 | Río Bueno | 07-05-2026 07:30 | 3 | 93,7 | 0 | 0 | 270 | 0,6 | 1023,3 |
| 30 | Río Bueno | 07-05-2026 07:15 | 3,4 | 93,5 | 0 | 0 | 270 | 0,6 | 1023,5 |
| 29 | Río Bueno | 07-05-2026 07:00 | 3,6 | 93 | 0 | 0 | 270 | 0,6 | 1023,4 |
| 28 | Río Bueno | 07-05-2026 06:45 | 3,8 | 92,5 | 0 | 0 | 270 | 0,6 | 1023,3 |
| 27 | Río Bueno | 07-05-2026 06:30 | 3,9 | 92,1 | 0 | 0 | 268 | 0,6 | 1023,1 |
| 26 | Río Bueno | 07-05-2026 06:15 | 4,1 | 92,5 | 0 | 0 | 234 | 0,6 | 1023,1 |
| 25 | Río Bueno | 07-05-2026 06:00 | 4,7 | 88,8 | 0 | 0 | 223 | 0,6 | 1023,2 |
| 24 | Río Bueno | 07-05-2026 05:45 | 5,8 | 90,5 | 0 | 0,7 | 218 | 0,6 | 1023,2 |
| 23 | Río Bueno | 07-05-2026 05:30 | 4 | 93,2 | 0 | 0 | 257 | 0,6 | 1023,3 |
| 22 | Río Bueno | 07-05-2026 05:15 | 3,3 | 91,4 | 0 | 0 | 258 | 0,6 | 1023 |
| 21 | Río Bueno | 07-05-2026 05:00 | 3,3 | 89,8 | 0 | 0 | 257 | 0,6 | 1022,6 |
| 20 | Río Bueno | 07-05-2026 04:45 | 3,9 | 89,7 | 0 | 0 | 246 | 0,6 | 1022,7 |
| 19 | Río Bueno | 07-05-2026 04:30 | 4,3 | 86,3 | 0 | 0 | 246 | 0,6 | 1022,4 |
| 18 | Río Bueno | 07-05-2026 04:15 | 5,5 | 83,1 | 0 | 0 | 246 | 0,6 | 1022,5 |
| 17 | Río Bueno | 07-05-2026 04:00 | 6,8 | 79 | 0 | 0,7 | 243 | 0,6 | 1022,2 |
| 16 | Río Bueno | 07-05-2026 03:45 | 7,3 | 77,1 | 0 | 0,7 | 215 | 0,6 | 1022,1 |
| 15 | Río Bueno | 07-05-2026 03:30 | 7,4 | 79,3 | 0 | 1,3 | 229 | 0,6 | 1022,2 |
| 14 | Río Bueno | 07-05-2026 03:15 | 7,6 | 80 | 0 | 1,3 | 244 | 0,6 | 1022,2 |
| 13 | Río Bueno | 07-05-2026 03:00 | 7,5 | 81 | 0 | 1,7 | 248 | 0,6 | 1022,1 |
| 12 | Río Bueno | 07-05-2026 02:45 | 7,7 | 83 | 0 | 1,3 | 253 | 0,6 | 1021,8 |
| 11 | Río Bueno | 07-05-2026 02:30 | 7,9 | 84,8 | 0 | 1 | 258 | 0,6 | 1021,7 |
| 10 | Río Bueno | 07-05-2026 02:15 | 7,6 | 87,8 | 0 | 0,7 | 261 | 0,6 | 1021,3 |
| 9 | Río Bueno | 07-05-2026 02:00 | 7,4 | 90,4 | 0 | 0,3 | 265 | 0,6 | 1021,1 |
| 8 | Río Bueno | 07-05-2026 01:45 | 7,1 | 92,1 | 0 | 0,3 | 279 | 0,6 | 1020,9 |
| 7 | Río Bueno | 07-05-2026 01:30 | 6,9 | 93,1 | 0 | 0,3 | 282 | 0,6 | 1020,7 |
| 6 | Río Bueno | 07-05-2026 01:15 | 6,7 | 92,9 | 0 | 0,3 | 295 | 0,6 | 1020,6 |
| 5 | Río Bueno | 07-05-2026 01:00 | 7 | 92,6 | 0 | 0,3 | 306 | 0,6 | 1020,5 |
| 4 | Río Bueno | 07-05-2026 00:45 | 7,1 | 93 | 0 | 0 | 250 | 0,6 | 1020,5 |
| 3 | Río Bueno | 07-05-2026 00:30 | 7,1 | 93,4 | 0 | 0,3 | 258 | 0,6 | 1020,4 |
| 2 | Río Bueno | 07-05-2026 00:15 | 6,1 | 93 | 0 | 0 | 278 | 0,6 | 1020,2 |
| 1 | Río Bueno | 07-05-2026 00:00 | 6,7 | 93,4 | 0 | 0 | 292 | 0,6 | 1020,1 |